createdAt,value
2022-08-05T00:02:23.089Z,73.20
2022-08-05T00:04:55.279Z,73.10
2022-08-05T00:07:58.873Z,73.50
2022-08-05T00:10:12.364Z,73.80
2022-08-05T00:12:55.758Z,73.20
2022-08-05T00:15:57.966Z,73.00
2022-08-05T00:18:21.602Z,73.50
2022-08-05T00:20:51.164Z,73.90
2022-08-05T00:23:44.340Z,74.10
2022-08-05T00:26:07.663Z,74.50
2022-08-05T00:28:35.741Z,74.90
2022-08-05T00:31:04.807Z,74.60
2022-08-05T00:34:56.351Z,74.70
2022-08-05T00:37:11.094Z,74.50
2022-08-05T00:39:13.970Z,74.70
2022-08-05T00:41:51.867Z,74.70
2022-08-05T00:44:30.975Z,74.60
2022-08-05T00:47:01.956Z,74.90
2022-08-05T00:49:44.657Z,75.00
2022-08-05T00:52:28.373Z,75.30
2022-08-05T00:54:56.539Z,74.80
2022-08-05T00:57:24.377Z,75.20
2022-08-05T00:59:53.329Z,75.30
2022-08-05T01:02:46.704Z,75.20
2022-08-05T01:05:17.700Z,75.40
2022-08-05T01:08:40.147Z,75.60
2022-08-05T01:10:52.558Z,75.60
2022-08-05T01:13:58.372Z,75.70
2022-08-05T01:16:52.899Z,76.00
2022-08-05T01:19:30.399Z,76.00
2022-08-05T01:22:40.830Z,75.80
2022-08-05T01:25:39.603Z,75.80
2022-08-05T01:28:19.352Z,75.70
2022-08-05T01:30:53.795Z,75.70
2022-08-05T01:33:35.607Z,75.40
2022-08-05T01:36:12.988Z,75.40
2022-08-05T01:38:48.509Z,75.10
2022-08-05T01:41:21.054Z,74.90
2022-08-05T01:43:51.447Z,74.80
2022-08-05T01:46:42.332Z,74.90
2022-08-05T01:49:24.075Z,75.00
2022-08-05T01:52:02.736Z,74.90
2022-08-05T01:54:59.254Z,74.90
2022-08-05T01:58:10.982Z,75.00
2022-08-05T02:00:31.572Z,74.80
2022-08-05T02:03:03.870Z,75.00
2022-08-05T02:05:35.865Z,76.50
2022-08-05T02:08:05.102Z,75.80
2022-08-05T02:10:51.328Z,76.00
2022-08-05T02:13:53.715Z,76.20
2022-08-05T02:16:29.658Z,76.30
2022-08-05T02:19:07.110Z,76.60
2022-08-05T02:21:43.455Z,76.80
2022-08-05T02:24:23.189Z,77.20
2022-08-05T02:26:56.335Z,77.20
2022-08-05T02:29:58.846Z,77.40
2022-08-05T02:32:23.907Z,77.80
2022-08-05T02:35:01.957Z,77.80
2022-08-05T02:37:38.968Z,77.60
2022-08-05T02:40:09.476Z,77.80
2022-08-05T02:42:38.841Z,78.10
2022-08-05T02:45:09.261Z,78.00
2022-08-05T02:48:07.684Z,78.20
2022-08-05T02:50:27.540Z,78.20
2022-08-05T02:52:57.524Z,78.60
2022-08-05T02:55:54.377Z,79.60
2022-08-05T02:58:16.078Z,78.80
2022-08-05T03:00:46.093Z,78.90
2022-08-05T03:03:18.201Z,78.80
2022-08-05T03:06:54.111Z,78.80
2022-08-05T03:08:36.503Z,78.90
2022-08-05T03:11:54.998Z,79.10
2022-08-05T03:14:04.083Z,79.20
2022-08-05T03:16:31.932Z,79.30
2022-08-05T03:19:01.305Z,79.20
2022-08-05T03:21:41.501Z,79.50
2022-08-05T03:24:23.669Z,79.40
2022-08-05T03:26:58.712Z,79.50
2022-08-05T03:29:45.313Z,79.70
2022-08-05T03:32:19.435Z,79.80
2022-08-05T03:34:50.711Z,80.00
2022-08-05T03:37:20.754Z,79.70
2022-08-05T03:40:01.041Z,80.00
2022-08-05T03:42:32.386Z,80.10
2022-08-05T03:45:01.720Z,80.10
2022-08-05T03:47:49.297Z,80.20
2022-08-05T03:50:17.058Z,80.20
2022-08-05T03:55:07.098Z,80.60
2022-08-05T03:56:10.412Z,80.60
2022-08-05T03:58:48.705Z,80.80
2022-08-05T04:01:21.247Z,81.00
2022-08-05T04:04:08.930Z,81.20
2022-08-05T04:06:47.624Z,81.40
2022-08-05T04:09:20.227Z,81.40
2022-08-05T04:11:52.332Z,81.40
2022-08-05T04:14:30.102Z,81.40
2022-08-05T04:17:00.274Z,81.40
2022-08-05T04:19:29.318Z,81.60
2022-08-05T04:22:05.248Z,81.50
2022-08-05T04:24:44.463Z,81.50
2022-08-05T04:27:13.529Z,81.50
2022-08-05T04:29:41.839Z,82.30
2022-08-05T04:32:09.957Z,81.80
2022-08-05T04:34:42.727Z,81.70
2022-08-05T04:37:10.951Z,81.70
2022-08-05T04:39:39.187Z,81.50
2022-08-05T04:42:08.092Z,81.50
2022-08-05T04:44:36.711Z,81.80
2022-08-05T04:47:09.385Z,81.80
2022-08-05T04:50:02.133Z,82.40
2022-08-05T04:52:27.774Z,81.70
2022-08-05T04:54:57.250Z,82.10
2022-08-05T04:57:29.034Z,81.00
2022-08-05T04:59:58.446Z,81.40
2022-08-05T05:02:37.593Z,81.70
2022-08-05T05:05:16.675Z,81.30
2022-08-05T05:08:03.810Z,81.20
2022-08-05T05:10:33.876Z,80.00
2022-08-05T05:13:04.077Z,80.20
2022-08-05T05:15:56.391Z,79.90
2022-08-05T05:18:28.337Z,79.90
2022-08-05T05:20:59.222Z,79.70
2022-08-05T05:23:38.839Z,79.20
2022-08-05T05:26:15.387Z,78.90
2022-08-05T05:28:45.144Z,79.00
2022-08-05T05:31:13.186Z,78.10
2022-08-05T05:33:58.665Z,77.40
2022-08-05T05:36:28.436Z,77.20
2022-08-05T05:38:57.486Z,76.50
2022-08-05T05:41:25.193Z,75.90
2022-08-05T05:44:35.995Z,75.60
2022-08-05T05:46:55.218Z,75.50
2022-08-05T05:49:25.859Z,75.40
2022-08-05T05:51:54.407Z,74.90
2022-08-05T05:54:22.433Z,74.00
2022-08-05T05:57:17.189Z,73.50
2022-08-05T05:59:48.823Z,72.80
2022-08-05T06:02:16.990Z,72.30
2022-08-05T06:04:49.331Z,71.90
2022-08-05T06:07:17.003Z,72.60
2022-08-05T06:10:01.421Z,72.20
2022-08-05T06:12:32.227Z,71.80
2022-08-05T06:15:02.271Z,71.20
2022-08-05T06:17:30.992Z,70.60
2022-08-05T06:19:59.763Z,70.20
2022-08-05T06:22:29.742Z,69.70
2022-08-05T06:24:57.819Z,69.10
2022-08-05T06:28:11.407Z,68.60
2022-08-05T06:30:20.072Z,68.70
2022-08-05T06:32:50.770Z,67.90
2022-08-05T06:36:03.123Z,67.10
2022-08-05T06:38:11.171Z,65.70
2022-08-05T06:40:44.616Z,66.40
2022-08-05T06:43:51.434Z,66.30
2022-08-05T06:46:06.846Z,65.50
2022-08-05T06:48:55.379Z,64.60
2022-08-05T06:51:29.744Z,65.30
2022-08-05T06:54:02.644Z,64.90
2022-08-05T07:00:22.088Z,64.50
2022-08-05T07:02:53.451Z,64.10
2022-08-05T07:05:27.393Z,64.80
2022-08-05T07:08:05.014Z,64.50
2022-08-05T07:10:32.908Z,62.80
2022-08-05T07:13:52.436Z,62.20
2022-08-05T07:17:56.390Z,63.10
2022-08-05T07:19:15.373Z,61.70
2022-08-05T07:22:00.306Z,61.70
2022-08-05T07:24:28.822Z,61.30
2022-08-05T07:26:57.679Z,60.10
2022-08-05T07:29:25.532Z,61.10
2022-08-05T07:32:13.064Z,60.30
2022-08-05T07:34:42.617Z,58.70
2022-08-05T07:37:14.602Z,59.10
2022-08-05T07:40:04.601Z,57.90
2022-08-05T07:42:33.446Z,57.50
2022-08-05T07:45:01.750Z,57.10
2022-08-05T07:47:42.042Z,56.70
2022-08-05T07:50:10.259Z,56.70
2022-08-05T07:52:43.192Z,56.30
2022-08-05T07:55:15.822Z,56.90
2022-08-05T07:58:03.245Z,56.20
2022-08-05T08:00:31.796Z,55.70
2022-08-05T08:03:14.669Z,54.50
2022-08-05T08:05:49.794Z,53.20
2022-08-05T08:08:19.701Z,53.10
2022-08-05T08:10:49.032Z,51.70
2022-08-05T08:13:21.898Z,51.00
2022-08-05T08:16:35.277Z,51.40
2022-08-05T08:18:50.139Z,50.20
2022-08-05T08:21:18.295Z,50.60
2022-08-05T08:24:01.801Z,49.80
2022-08-05T08:26:32.998Z,49.20
2022-08-05T08:29:22.162Z,47.70
2022-08-05T08:31:49.619Z,48.30
2022-08-05T08:34:18.970Z,46.70
2022-08-05T08:37:04.617Z,46.60
2022-08-05T08:39:37.644Z,48.30
2022-08-05T08:42:10.611Z,48.50
2022-08-05T08:45:19.143Z,46.20
2022-08-05T08:48:10.423Z,46.60
2022-08-05T08:51:03.722Z,46.50
2022-08-05T08:53:26.364Z,46.50
2022-08-05T08:56:04.643Z,45.80
2022-08-05T08:58:37.491Z,46.60
2022-08-05T09:01:16.263Z,46.20
2022-08-05T09:03:55.387Z,46.00
2022-08-05T09:06:28.137Z,44.00
2022-08-05T09:09:02.098Z,45.10
2022-08-05T09:11:50.910Z,44.20
2022-08-05T09:14:56.617Z,43.40
2022-08-05T09:17:09.437Z,43.70
2022-08-05T09:19:55.459Z,43.70
2022-08-05T09:22:31.930Z,41.20
2022-08-05T09:25:13.808Z,42.50
2022-08-05T09:28:05.925Z,42.10
2022-08-05T09:30:34.885Z,43.80
2022-08-05T09:33:02.655Z,42.60
2022-08-05T09:35:32.778Z,41.90
2022-08-05T09:38:12.237Z,42.40
2022-08-05T09:40:52.501Z,42.60
2022-08-05T09:43:40.526Z,40.50
2022-08-05T09:46:31.637Z,41.90
2022-08-05T09:49:08.199Z,40.60
2022-08-05T09:51:48.904Z,42.00
2022-08-05T09:54:29.559Z,42.60
2022-08-05T09:57:01.319Z,41.10
2022-08-05T09:59:35.203Z,41.40
2022-08-05T10:02:05.292Z,42.60
2022-08-05T10:04:38.463Z,41.10
2022-08-05T10:07:20.262Z,40.70
2022-08-05T10:10:14.403Z,42.10
2022-08-05T10:12:49.675Z,40.30
2022-08-05T10:15:26.575Z,40.90
2022-08-05T10:18:13.346Z,41.60
2022-08-05T10:20:47.858Z,41.90
2022-08-05T10:23:55.844Z,40.30
2022-08-05T10:26:14.991Z,41.40
2022-08-05T10:28:46.767Z,41.50
2022-08-05T10:32:49.238Z,42.60
2022-08-05T10:34:09.210Z,42.20
2022-08-05T10:36:39.268Z,42.60
2022-08-05T10:39:24.984Z,41.90
2022-08-05T10:42:18.694Z,42.50
2022-08-05T10:44:51.435Z,41.70
2022-08-05T10:47:25.941Z,41.40
2022-08-05T10:50:31.588Z,42.80
2022-08-05T10:53:01.116Z,43.00
2022-08-05T10:55:38.547Z,42.40
2022-08-05T10:58:23.665Z,42.10
2022-08-05T11:01:11.405Z,42.40
2022-08-05T11:04:02.054Z,49.80
2022-08-05T11:06:30.874Z,50.00
2022-08-05T11:09:31.876Z,43.60
2022-08-05T11:12:42.100Z,42.20
2022-08-05T11:15:20.389Z,43.00
2022-08-05T11:18:00.415Z,43.10
2022-08-05T11:20:43.857Z,42.70
2022-08-05T11:24:03.031Z,42.10
2022-08-05T11:26:28.610Z,42.90
2022-08-05T11:28:58.078Z,41.80
2022-08-05T11:31:56.648Z,42.10
2022-08-05T11:34:39.579Z,41.60
2022-08-05T11:38:29.105Z,41.50
2022-08-05T11:39:55.281Z,41.60
2022-08-05T11:42:28.780Z,42.10
2022-08-05T11:45:05.316Z,41.70
2022-08-05T11:47:48.211Z,41.70
2022-08-05T11:50:18.211Z,41.20
2022-08-05T11:52:49.558Z,42.20
2022-08-05T11:55:18.734Z,41.30
2022-08-05T11:58:09.240Z,41.90
2022-08-05T12:00:38.225Z,42.20
2022-08-05T12:03:29.556Z,42.20
2022-08-05T12:06:10.023Z,41.60
2022-08-05T12:08:51.022Z,42.90
2022-08-05T12:11:22.223Z,41.80
2022-08-05T12:14:05.545Z,41.30
2022-08-05T12:16:38.423Z,42.00
2022-08-05T12:19:08.335Z,42.10
2022-08-05T12:21:43.290Z,41.20
2022-08-05T12:24:18.576Z,40.90
2022-08-05T12:26:51.674Z,41.10
2022-08-05T12:29:22.979Z,42.10
2022-08-05T12:31:56.526Z,43.00
2022-08-05T12:34:28.536Z,42.10
2022-08-05T12:36:58.608Z,42.60
2022-08-05T12:39:34.328Z,41.50
2022-08-05T12:42:14.862Z,41.60
2022-08-05T12:44:47.711Z,41.90
2022-08-05T12:47:30.720Z,41.20
2022-08-05T12:50:03.228Z,42.10
2022-08-05T12:52:38.700Z,41.40
2022-08-05T12:55:22.494Z,41.70
2022-08-05T12:58:49.932Z,42.10
2022-08-05T13:02:01.962Z,43.30
2022-08-05T13:03:33.161Z,41.80
2022-08-05T13:06:01.977Z,42.60
2022-08-05T13:08:32.255Z,42.40
2022-08-05T13:11:01.692Z,43.10
2022-08-05T13:14:04.905Z,42.10
2022-08-05T13:16:20.001Z,42.50
2022-08-05T13:18:58.627Z,42.10
2022-08-05T13:21:28.562Z,42.10
2022-08-05T13:24:08.724Z,42.10
2022-08-05T13:26:36.617Z,42.50
2022-08-05T13:29:05.375Z,42.50
2022-08-05T13:32:04.010Z,43.40
2022-08-05T13:34:26.074Z,42.10
2022-08-05T13:36:54.321Z,42.10
2022-08-05T13:39:24.586Z,42.50
2022-08-05T13:42:14.725Z,42.70
2022-08-05T13:44:45.898Z,42.50
2022-08-05T13:47:36.168Z,44.30
2022-08-05T13:50:06.480Z,43.50
2022-08-05T13:52:37.307Z,42.20
2022-08-05T13:55:07.932Z,43.10
2022-08-05T13:57:50.701Z,42.50
2022-08-05T14:00:27.262Z,44.90
2022-08-05T14:03:01.063Z,42.20
2022-08-05T14:06:04.661Z,42.70
2022-08-05T14:08:21.233Z,43.40
2022-08-05T14:10:59.756Z,43.50
2022-08-05T14:13:43.843Z,43.60
2022-08-05T14:16:16.775Z,44.20
2022-08-05T14:18:44.885Z,43.30
2022-08-05T14:22:07.159Z,42.30
2022-08-05T14:24:00.654Z,43.70
2022-08-05T14:26:35.748Z,43.70
2022-08-05T14:29:15.878Z,44.30
2022-08-05T14:32:02.803Z,43.70
2022-08-05T14:34:35.521Z,43.10
2022-08-05T14:37:06.729Z,57.30
2022-08-05T14:39:50.138Z,44.10
2022-08-05T14:42:23.294Z,44.00
2022-08-05T14:44:52.847Z,44.10
2022-08-05T14:48:03.573Z,43.40
2022-08-05T14:50:18.301Z,43.60
2022-08-05T14:52:56.845Z,43.00
2022-08-05T14:55:38.451Z,43.40
2022-08-05T14:58:11.803Z,43.90
2022-08-05T15:00:58.212Z,44.00
2022-08-05T15:03:33.909Z,43.60
2022-08-05T15:06:15.447Z,43.80
2022-08-05T15:08:57.986Z,43.90
2022-08-05T15:11:52.745Z,43.80
2022-08-05T15:14:34.351Z,44.40
2022-08-05T15:17:05.430Z,43.90
2022-08-05T15:19:42.084Z,43.60
2022-08-05T15:22:16.713Z,43.20
2022-08-05T15:24:44.982Z,43.40
2022-08-05T15:27:13.298Z,42.90
2022-08-05T15:29:42.305Z,42.80
2022-08-05T15:32:10.561Z,43.80
2022-08-05T15:34:38.344Z,43.70
2022-08-05T15:37:06.203Z,42.70
2022-08-05T15:41:03.268Z,43.20
2022-08-05T15:42:54.786Z,43.60
2022-08-05T15:45:23.134Z,43.60
2022-08-05T15:48:06.814Z,43.00
2022-08-05T15:50:34.670Z,43.60
2022-08-05T15:53:05.679Z,42.70
2022-08-05T15:56:02.205Z,43.80
2022-08-05T15:58:23.109Z,42.80
2022-08-05T16:01:16.699Z,42.60
2022-08-05T16:03:44.590Z,42.70
2022-08-05T16:06:20.427Z,43.10
2022-08-05T16:08:50.373Z,43.80
2022-08-05T16:11:21.085Z,44.30
2022-08-05T16:14:07.933Z,42.60
2022-08-05T16:16:37.069Z,42.90
2022-08-05T16:19:05.205Z,43.00
2022-08-05T16:21:59.443Z,43.40
2022-08-05T16:24:39.479Z,43.40
2022-08-05T16:27:08.559Z,43.50
2022-08-05T16:29:37.472Z,43.60
2022-08-05T16:32:09.528Z,44.20
2022-08-05T16:34:39.319Z,44.00
2022-08-05T16:38:02.929Z,44.10
2022-08-05T16:40:06.521Z,44.50
2022-08-05T16:42:35.751Z,43.80
2022-08-05T16:46:04.915Z,43.60
2022-08-05T16:47:55.565Z,43.90
2022-08-05T16:50:27.883Z,43.40
2022-08-05T16:52:56.460Z,43.80
2022-08-05T16:55:24.485Z,44.70
2022-08-05T16:58:00.288Z,44.70
2022-08-05T17:00:34.278Z,44.40
2022-08-05T17:03:15.381Z,45.10
2022-08-05T17:05:53.997Z,44.60
2022-08-05T17:08:36.321Z,44.40
2022-08-05T17:11:18.886Z,45.30
2022-08-05T17:13:46.867Z,45.30
2022-08-05T17:16:33.429Z,46.10
2022-08-05T17:19:01.507Z,46.60
2022-08-05T17:21:36.174Z,46.50
2022-08-05T17:24:27.993Z,47.30
2022-08-05T17:27:00.160Z,47.20
2022-08-05T17:29:33.071Z,46.90
2022-08-05T17:32:11.412Z,47.10
2022-08-05T17:34:39.814Z,47.60
2022-08-05T17:37:32.092Z,47.40
2022-08-05T17:39:56.217Z,47.90
2022-08-05T17:42:31.883Z,47.90
2022-08-05T17:45:09.932Z,47.80
2022-08-05T17:47:54.079Z,48.00
2022-08-05T17:50:30.431Z,48.80
2022-08-05T17:53:01.100Z,48.70
2022-08-05T17:55:37.664Z,49.20
2022-08-05T17:58:10.927Z,52.10
2022-08-05T18:00:45.562Z,57.20
2022-08-05T18:03:59.231Z,57.90
2022-08-05T18:06:12.142Z,56.50
2022-08-05T18:08:46.174Z,56.40
2022-08-05T18:11:24.199Z,55.90
2022-08-05T18:14:13.104Z,58.10
2022-08-05T18:16:51.330Z,57.60
2022-08-05T18:19:22.885Z,58.30
2022-08-05T18:22:09.115Z,57.80
2022-08-05T18:24:42.671Z,58.00
2022-08-05T18:27:12.511Z,59.30
2022-08-05T18:29:53.732Z,58.00
2022-08-05T18:32:28.123Z,59.20
2022-08-05T18:34:59.272Z,59.60
2022-08-05T18:37:34.868Z,60.10
2022-08-05T18:41:52.700Z,60.00
2022-08-05T18:43:01.133Z,60.30
2022-08-05T18:45:40.925Z,60.30
2022-08-05T18:48:11.311Z,61.30
2022-08-05T18:51:07.259Z,61.30
2022-08-05T18:53:50.507Z,60.80
2022-08-05T18:56:21.728Z,60.00
2022-08-05T18:58:54.717Z,61.10
2022-08-05T19:01:33.400Z,61.90
2022-08-05T19:04:23.889Z,63.20
2022-08-05T19:06:54.842Z,64.40
2022-08-05T19:09:22.459Z,63.80
2022-08-05T19:12:00.394Z,64.00
2022-08-05T19:14:53.517Z,63.00
2022-08-05T19:17:18.073Z,64.40
2022-08-05T19:19:48.612Z,64.70
2022-08-05T19:22:17.503Z,64.80
2022-08-05T19:24:54.176Z,65.90
2022-08-05T19:27:30.471Z,66.20
2022-08-05T19:29:58.721Z,66.70
2022-08-05T19:32:32.203Z,66.90
2022-08-05T19:35:06.493Z,66.90
2022-08-05T19:38:04.412Z,67.90
2022-08-05T19:40:24.314Z,68.20
2022-08-05T19:43:04.939Z,68.40
2022-08-05T19:45:37.182Z,68.50
2022-08-05T19:48:05.866Z,69.50
2022-08-05T19:50:34.939Z,70.10
2022-08-05T19:53:09.564Z,69.70
2022-08-05T19:56:14.842Z,70.20
2022-08-05T19:58:31.351Z,69.70
2022-08-05T20:01:24.555Z,70.20
2022-08-05T20:03:56.484Z,71.00
2022-08-05T20:06:28.750Z,70.00
2022-08-05T20:08:59.794Z,70.90
2022-08-05T20:11:29.568Z,70.30
2022-08-05T20:14:14.195Z,70.00
2022-08-05T20:16:49.689Z,70.20
2022-08-05T20:19:17.509Z,69.90
2022-08-05T20:21:48.798Z,71.10
2022-08-05T20:27:01.943Z,71.60
2022-08-05T20:29:29.612Z,70.40
2022-08-05T20:32:00.220Z,71.20
2022-08-05T20:34:30.082Z,71.10
2022-08-05T20:36:58.541Z,71.10
2022-08-05T20:39:26.115Z,71.00
2022-08-05T20:42:05.362Z,71.70
2022-08-05T20:44:37.973Z,72.20
2022-08-05T20:47:07.386Z,72.80
2022-08-05T20:49:39.492Z,72.10
2022-08-05T20:52:12.491Z,69.80
2022-08-05T20:54:42.859Z,70.90
2022-08-05T20:57:24.509Z,71.00
2022-08-05T21:00:21.467Z,71.00
2022-08-05T21:02:51.662Z,71.00
2022-08-05T21:05:23.232Z,71.10
2022-08-05T21:07:52.491Z,71.80
2022-08-05T21:10:21.459Z,71.20
2022-08-05T21:12:58.166Z,72.80
2022-08-05T21:15:38.272Z,71.40
2022-08-05T21:18:05.999Z,71.60
2022-08-05T21:20:34.770Z,72.10
2022-08-05T21:23:02.990Z,72.10
2022-08-05T21:25:33.518Z,72.40
2022-08-05T21:28:03.298Z,72.50
2022-08-05T21:30:31.686Z,72.10
2022-08-05T21:33:05.425Z,72.20
2022-08-05T21:35:55.353Z,72.30
2022-08-05T21:38:30.139Z,72.50
2022-08-05T21:40:57.891Z,72.40
2022-08-05T21:43:25.538Z,71.70
2022-08-05T21:45:57.979Z,72.70
2022-08-05T21:48:29.125Z,70.80
2022-08-05T21:50:59.467Z,70.50
2022-08-05T21:53:27.947Z,69.90
2022-08-05T21:56:05.809Z,70.40
2022-08-05T21:58:57.057Z,70.80
2022-08-05T22:01:26.446Z,70.60
2022-08-05T22:03:54.269Z,71.10
2022-08-05T22:06:35.199Z,71.20
2022-08-05T22:09:13.819Z,72.00
2022-08-05T22:11:43.702Z,71.40
2022-08-05T22:14:34.386Z,71.30
2022-08-05T22:17:05.060Z,72.00
2022-08-05T22:20:01.888Z,71.30
2022-08-05T22:22:26.861Z,71.70
2022-08-05T22:25:21.020Z,71.10
2022-08-05T22:28:08.327Z,71.80
2022-08-05T22:30:55.612Z,71.80
2022-08-05T22:33:57.025Z,71.40
2022-08-05T22:36:25.705Z,71.40
2022-08-05T22:38:53.995Z,71.50
2022-08-05T22:41:26.417Z,71.40
2022-08-05T22:44:09.474Z,71.80
2022-08-05T22:46:41.356Z,71.90
2022-08-05T22:49:23.347Z,71.50
2022-08-05T22:52:04.740Z,71.30
2022-08-05T22:54:35.211Z,71.80
2022-08-05T22:57:06.350Z,70.80
2022-08-05T22:59:45.894Z,70.80
2022-08-05T23:02:28.747Z,71.10
2022-08-05T23:04:57.291Z,71.30
2022-08-05T23:07:24.878Z,71.40
2022-08-05T23:10:01.719Z,71.40
2022-08-05T23:12:33.279Z,71.40
2022-08-05T23:15:08.813Z,71.00
2022-08-05T23:17:59.578Z,71.00
2022-08-05T23:20:25.177Z,70.40
2022-08-05T23:22:55.973Z,69.90
2022-08-05T23:25:52.345Z,70.40
2022-08-05T23:28:12.214Z,70.60
2022-08-05T23:30:43.910Z,69.80
2022-08-05T23:33:25.867Z,69.40
2022-08-05T23:36:06.975Z,70.10
2022-08-05T23:38:38.222Z,69.40
2022-08-05T23:41:05.919Z,70.60
2022-08-05T23:44:02.850Z,70.70
2022-08-05T23:46:22.062Z,70.40
2022-08-05T23:49:00.567Z,70.50
2022-08-05T23:51:53.635Z,70.90
2022-08-05T23:54:38.394Z,69.80
2022-08-05T23:57:07.417Z,69.60
